createdAt,value
2018-06-29T00:00:35.613Z,2.90
2018-06-29T00:03:04.566Z,2.83
2018-06-29T00:05:33.531Z,2.77
2018-06-29T00:08:02.531Z,3.20
2018-06-29T00:10:35.204Z,2.70
2018-06-29T00:13:04.204Z,2.57
2018-06-29T00:15:33.155Z,2.80
2018-06-29T00:18:02.538Z,3.07
2018-06-29T00:20:31.524Z,2.50
2018-06-29T00:23:00.520Z,2.30
2018-06-29T00:25:29.471Z,2.93
2018-06-29T00:27:58.837Z,2.50
2018-06-29T00:30:30.340Z,2.47
2018-06-29T00:32:59.297Z,2.57
2018-06-29T00:35:28.995Z,2.63
2018-06-29T00:37:57.953Z,3.03
2018-06-29T00:40:26.919Z,3.00
2018-06-29T00:42:55.989Z,2.80
2018-06-29T00:45:24.946Z,2.30
2018-06-29T00:47:53.919Z,2.50
2018-06-29T00:50:22.865Z,2.33
2018-06-29T00:52:51.856Z,2.33
2018-06-29T00:55:20.872Z,2.33
2018-06-29T00:57:50.933Z,2.67
2018-06-29T01:00:23.505Z,2.40
2018-06-29T01:02:52.615Z,3.10
2018-06-29T01:05:21.588Z,2.67
2018-06-29T01:07:52.103Z,2.87
2018-06-29T01:10:22.276Z,2.80
2018-06-29T01:12:51.267Z,2.97
2018-06-29T01:15:20.610Z,2.97
2018-06-29T01:17:49.622Z,2.70
2018-06-29T01:20:19.221Z,2.60
2018-06-29T01:22:48.202Z,3.03
2018-06-29T01:25:17.156Z,2.50
2018-06-29T01:27:47.597Z,2.80
2018-06-29T01:30:16.543Z,2.90
2018-06-29T01:32:45.489Z,3.00
2018-06-29T01:35:14.484Z,2.90
2018-06-29T01:37:43.462Z,3.00
2018-06-29T01:40:12.827Z,2.80
2018-06-29T01:42:44.412Z,2.63
2018-06-29T01:45:14.546Z,3.10
2018-06-29T01:47:43.710Z,2.83
2018-06-29T01:50:17.102Z,3.20
2018-06-29T01:52:46.102Z,2.90
2018-06-29T01:55:15.053Z,3.20
2018-06-29T01:57:44.012Z,2.70
2018-06-29T02:00:14.631Z,3.13
2018-06-29T02:02:43.648Z,3.50
2018-06-29T02:05:12.664Z,3.17
2018-06-29T02:07:45.345Z,3.20
2018-06-29T02:10:14.409Z,3.30
2018-06-29T02:12:43.369Z,3.70
2018-06-29T02:15:14.416Z,3.00
2018-06-29T02:17:43.393Z,3.20
2018-06-29T02:20:12.919Z,2.93
2018-06-29T02:22:41.895Z,3.03
2018-06-29T02:25:10.859Z,3.10
2018-06-29T02:27:39.851Z,2.93
2018-06-29T02:30:10.293Z,3.70
2018-06-29T02:32:39.276Z,3.10
2018-06-29T02:35:08.267Z,3.37
2018-06-29T02:37:38.472Z,3.20
2018-06-29T02:40:08.305Z,2.87
2018-06-29T02:42:39.657Z,3.13
2018-06-29T02:45:08.941Z,2.73
2018-06-29T02:47:37.905Z,3.43
2018-06-29T02:50:06.896Z,3.30
2018-06-29T02:52:37.561Z,3.00
2018-06-29T02:55:06.618Z,3.00
2018-06-29T02:57:35.576Z,3.73
2018-06-29T03:00:05.847Z,3.37
2018-06-29T03:02:35.989Z,3.50
2018-06-29T03:05:05.144Z,3.10
2018-06-29T03:07:34.318Z,2.83
2018-06-29T03:10:03.411Z,3.30
2018-06-29T03:12:32.353Z,3.00
2018-06-29T03:15:01.322Z,2.97
2018-06-29T03:17:30.281Z,3.30
2018-06-29T03:19:59.762Z,2.90
2018-06-29T03:22:28.705Z,3.00
2018-06-29T03:24:57.678Z,3.67
2018-06-29T03:27:26.698Z,3.10
2018-06-29T03:29:55.716Z,3.27
2018-06-29T03:32:24.659Z,3.40
2018-06-29T03:34:53.617Z,3.73
2018-06-29T03:37:23.033Z,3.20
2018-06-29T03:39:52.029Z,3.67
2018-06-29T03:42:21.038Z,3.90
2018-06-29T03:44:50.846Z,3.33
2018-06-29T03:47:19.809Z,3.10
2018-06-29T03:49:48.812Z,3.60
2018-06-29T03:52:18.420Z,2.97
2018-06-29T03:54:47.943Z,3.07
2018-06-29T03:57:16.924Z,3.27
2018-06-29T03:59:47.234Z,3.80
2018-06-29T04:02:16.187Z,3.27
2018-06-29T04:04:45.175Z,2.70
2018-06-29T04:07:14.157Z,3.27
2018-06-29T04:09:44.609Z,3.10
2018-06-29T04:12:13.547Z,3.47
2018-06-29T04:14:42.948Z,3.30
2018-06-29T04:17:12.724Z,3.23
2018-06-29T04:19:42.548Z,4.17
2018-06-29T04:22:11.534Z,3.43
2018-06-29T04:24:40.491Z,3.60
2018-06-29T04:27:09.424Z,4.50
2018-06-29T04:29:38.392Z,3.50
2018-06-29T04:32:08.103Z,3.47
2018-06-29T04:34:37.686Z,3.70
2018-06-29T04:37:06.626Z,3.60
2018-06-29T04:39:38.135Z,3.70
2018-06-29T04:42:14.455Z,3.40
2018-06-29T04:44:43.435Z,3.00
2018-06-29T04:47:12.388Z,3.33
2018-06-29T04:49:41.386Z,3.33
2018-06-29T04:52:10.787Z,3.80
2018-06-29T04:54:40.222Z,3.33
2018-06-29T04:57:09.164Z,3.43
2018-06-29T04:59:38.881Z,4.00
2018-06-29T05:02:07.981Z,4.57
2018-06-29T05:04:37.080Z,3.73
2018-06-29T05:07:06.067Z,4.07
2018-06-29T05:09:35.082Z,4.00
2018-06-29T05:12:04.596Z,3.63
2018-06-29T05:14:33.573Z,3.43
2018-06-29T05:17:02.564Z,3.60
2018-06-29T05:19:31.507Z,4.00
2018-06-29T05:22:00.499Z,3.97
2018-06-29T05:24:29.448Z,3.77
2018-06-29T05:27:01.046Z,3.50
2018-06-29T05:29:30.016Z,4.20
2018-06-29T05:31:58.983Z,3.23
2018-06-29T05:34:27.947Z,3.93
2018-06-29T05:36:56.904Z,3.80
2018-06-29T05:39:25.859Z,3.47
2018-06-29T05:41:54.801Z,3.80
2018-06-29T05:44:23.743Z,3.80
2018-06-29T05:46:53.578Z,4.27
2018-06-29T05:49:26.247Z,4.03
2018-06-29T05:51:55.225Z,3.60
2018-06-29T05:54:24.163Z,3.33
2018-06-29T05:56:57.474Z,3.50
2018-06-29T05:59:26.421Z,3.77
2018-06-29T06:01:55.477Z,3.67
2018-06-29T06:04:24.410Z,3.60
2018-06-29T06:06:53.392Z,3.47
2018-06-29T06:09:22.761Z,3.90
2018-06-29T06:11:53.150Z,3.70
2018-06-29T06:14:22.076Z,3.30
2018-06-29T06:16:51.074Z,3.83
2018-06-29T06:19:31.888Z,4.70
2018-06-29T06:22:00.911Z,4.13
2018-06-29T06:24:29.837Z,4.03
2018-06-29T06:26:58.875Z,4.03
2018-06-29T06:29:27.819Z,4.13
2018-06-29T06:31:56.811Z,5.03
2018-06-29T06:34:25.885Z,3.90
2018-06-29T06:36:55.027Z,4.07
2018-06-29T06:39:23.983Z,3.93
2018-06-29T06:41:52.941Z,4.27
2018-06-29T06:44:21.944Z,3.67
2018-06-29T06:46:50.979Z,4.27
2018-06-29T06:49:20.178Z,4.13
2018-06-29T06:51:49.338Z,4.60
2018-06-29T06:54:19.288Z,4.43
2018-06-29T06:56:48.341Z,4.37
2018-06-29T06:59:17.370Z,4.07
2018-06-29T07:01:46.336Z,4.17
2018-06-29T07:04:15.780Z,3.30
2018-06-29T07:06:44.802Z,3.83
2018-06-29T07:09:14.183Z,3.20
2018-06-29T07:11:47.083Z,4.17
2018-06-29T07:14:17.050Z,3.90
2018-06-29T07:16:46.041Z,3.83
2018-06-29T07:19:15.026Z,3.50
2018-06-29T07:21:44.783Z,3.77
2018-06-29T07:24:13.778Z,3.73
2018-06-29T07:26:42.772Z,3.90
2018-06-29T07:29:11.731Z,3.40
2018-06-29T07:31:40.719Z,3.53
2018-06-29T07:34:09.711Z,3.53
2018-06-29T07:36:39.155Z,3.40
2018-06-29T07:39:09.069Z,3.50
2018-06-29T07:41:38.090Z,3.40
2018-06-29T07:44:07.323Z,3.77
2018-06-29T07:46:36.364Z,3.63
2018-06-29T07:49:07.067Z,3.43
2018-06-29T07:51:36.058Z,3.70
2018-06-29T07:54:05.203Z,3.27
2018-06-29T07:56:36.632Z,4.33
2018-06-29T07:59:05.354Z,2.90
2018-06-29T08:01:34.010Z,3.00
2018-06-29T08:04:04.803Z,2.63
2018-06-29T08:06:33.779Z,2.87
2018-06-29T08:09:03.318Z,2.10
2018-06-29T08:11:33.276Z,2.40
2018-06-29T08:14:01.858Z,2.20
2018-06-29T08:16:32.193Z,2.10
2018-06-29T08:19:00.786Z,2.90
2018-06-29T08:21:29.693Z,2.13
2018-06-29T08:23:58.637Z,2.73
2018-06-29T08:26:29.146Z,2.07
2018-06-29T08:28:58.097Z,2.33
2018-06-29T08:31:27.029Z,2.20
2018-06-29T08:33:58.813Z,2.43
2018-06-29T08:36:27.787Z,2.20
2018-06-29T08:38:56.729Z,2.30
2018-06-29T08:41:25.687Z,2.73
2018-06-29T08:43:57.059Z,2.80
2018-06-29T08:46:26.938Z,2.70
2018-06-29T08:48:55.898Z,2.50
2018-06-29T08:51:25.931Z,3.10
2018-06-29T08:53:55.386Z,2.67
2018-06-29T08:56:24.348Z,2.90
2018-06-29T08:58:53.793Z,2.43
2018-06-29T09:01:22.707Z,5.10
2018-06-29T09:03:54.581Z,2.70
2018-06-29T09:06:23.580Z,3.00
2018-06-29T09:08:53.722Z,3.00
2018-06-29T09:11:22.991Z,2.50
2018-06-29T09:13:52.026Z,3.03
2018-06-29T09:16:22.010Z,2.50
2018-06-29T09:18:52.309Z,3.00
2018-06-29T09:21:21.532Z,2.70
2018-06-29T09:23:54.675Z,2.60
2018-06-29T09:26:24.467Z,3.37
2018-06-29T09:28:53.589Z,2.80
2018-06-29T09:31:22.584Z,2.90
2018-06-29T09:33:51.623Z,2.97
2018-06-29T09:36:20.480Z,3.10
2018-06-29T09:38:51.543Z,3.00
2018-06-29T09:41:20.529Z,2.50
2018-06-29T09:43:50.295Z,2.80
2018-06-29T09:46:19.273Z,2.73
2018-06-29T09:48:48.940Z,2.57
2018-06-29T09:51:17.942Z,2.10
2018-06-29T09:53:47.024Z,2.80
2018-06-29T09:56:16.212Z,2.43
2018-06-29T09:58:45.015Z,2.30
2018-06-29T10:01:13.788Z,2.80
2018-06-29T10:03:44.493Z,2.53
2018-06-29T10:06:13.255Z,2.33
2018-06-29T10:08:41.890Z,2.47
2018-06-29T10:11:13.530Z,2.67
2018-06-29T10:13:42.183Z,2.17
2018-06-29T10:16:10.958Z,2.30
2018-06-29T10:18:41.273Z,3.10
2018-06-29T10:21:10.013Z,2.63
2018-06-29T10:23:40.889Z,3.03
2018-06-29T10:26:09.741Z,2.80
2018-06-29T10:28:38.331Z,3.10
2018-06-29T10:31:06.946Z,3.20
2018-06-29T10:33:35.558Z,3.13
2018-06-29T10:36:04.141Z,2.50
2018-06-29T10:38:33.015Z,2.30
2018-06-29T10:41:02.710Z,2.43
2018-06-29T10:43:31.666Z,2.13
2018-06-29T10:46:00.599Z,2.53
2018-06-29T10:48:29.625Z,2.63
2018-06-29T10:50:59.378Z,3.27
2018-06-29T10:53:28.349Z,3.00
2018-06-29T10:55:58.211Z,2.60
2018-06-29T10:58:27.338Z,2.40
2018-06-29T11:00:56.281Z,2.27
2018-06-29T11:03:27.930Z,2.40
2018-06-29T11:05:56.897Z,3.30
2018-06-29T11:08:27.199Z,3.20
2018-06-29T11:10:56.184Z,3.10
2018-06-29T11:13:25.179Z,3.00
2018-06-29T11:15:54.122Z,2.60
2018-06-29T11:18:24.042Z,3.00
2018-06-29T11:20:54.222Z,2.47
2018-06-29T11:23:23.214Z,2.60
2018-06-29T11:25:52.190Z,2.40
2018-06-29T11:28:21.154Z,2.43
2018-06-29T11:30:50.106Z,1.83
2018-06-29T11:33:19.348Z,2.50
2018-06-29T11:35:48.353Z,2.20
2018-06-29T11:38:17.731Z,2.50
2018-06-29T11:40:50.258Z,2.27
2018-06-29T11:43:19.691Z,2.40
2018-06-29T11:45:48.651Z,2.70
2018-06-29T11:48:17.603Z,2.47
2018-06-29T11:50:49.167Z,2.57
2018-06-29T11:53:19.315Z,2.57
2018-06-29T11:55:49.434Z,2.63
2018-06-29T11:58:18.381Z,2.50
2018-06-29T12:00:47.413Z,2.43
2018-06-29T12:03:16.374Z,2.40
2018-06-29T12:05:45.381Z,2.40
2018-06-29T12:08:14.470Z,2.80
2018-06-29T12:10:43.496Z,2.60
2018-06-29T12:13:12.435Z,2.27
2018-06-29T12:15:41.395Z,2.30
2018-06-29T12:18:10.339Z,2.50
2018-06-29T12:20:40.586Z,2.53
2018-06-29T12:23:09.469Z,2.60
2018-06-29T12:25:38.466Z,2.10
2018-06-29T12:28:08.922Z,1.63
2018-06-29T12:30:37.900Z,2.50
2018-06-29T12:33:07.175Z,2.70
2018-06-29T12:35:38.514Z,2.50
2018-06-29T12:38:07.609Z,2.30
2018-06-29T12:40:36.615Z,2.17
2018-06-29T12:43:05.592Z,3.00
2018-06-29T12:45:35.774Z,2.67
2018-06-29T12:48:04.707Z,2.50
2018-06-29T12:50:34.582Z,2.30
2018-06-29T12:53:05.698Z,2.80
2018-06-29T12:55:34.716Z,2.87
2018-06-29T12:58:03.980Z,1.93
2018-06-29T13:00:32.959Z,4.23
2018-06-29T13:03:02.137Z,2.00
2018-06-29T13:05:31.204Z,2.00
2018-06-29T13:08:00.115Z,3.10
2018-06-29T13:10:29.231Z,2.60
2018-06-29T13:12:58.168Z,1.87
2018-06-29T13:15:28.331Z,1.73
2018-06-29T13:17:57.771Z,1.70
2018-06-29T13:20:26.827Z,1.67
2018-06-29T13:22:56.221Z,2.33
2018-06-29T13:25:25.224Z,2.13
2018-06-29T13:27:54.166Z,2.30
2018-06-29T13:30:23.126Z,2.50
2018-06-29T13:32:52.100Z,2.67
2018-06-29T13:35:22.666Z,2.90
2018-06-29T13:37:58.780Z,2.60
2018-06-29T13:40:33.074Z,2.10
2018-06-29T13:43:04.282Z,2.20
2018-06-29T13:45:34.086Z,2.00
2018-06-29T13:48:03.300Z,2.00
2018-06-29T13:50:33.038Z,2.00
2018-06-29T13:53:03.141Z,1.90
2018-06-29T13:55:32.518Z,2.23
2018-06-29T13:58:02.438Z,2.37
2018-06-29T14:00:31.438Z,2.70
2018-06-29T14:03:01.768Z,2.07
2018-06-29T14:05:45.525Z,2.70
2018-06-29T14:08:14.834Z,2.40
2018-06-29T14:10:46.451Z,2.20
2018-06-29T14:13:15.674Z,2.30
2018-06-29T14:15:44.910Z,1.90
2018-06-29T14:18:16.811Z,1.67
2018-06-29T14:20:46.051Z,2.27
2018-06-29T14:23:15.277Z,1.80
2018-06-29T14:25:44.478Z,2.00
2018-06-29T14:28:13.680Z,2.47
2018-06-29T14:30:44.049Z,2.30
2018-06-29T14:33:13.315Z,2.00
2018-06-29T14:35:42.507Z,2.20
2018-06-29T14:38:11.733Z,1.60
2018-06-29T14:40:40.946Z,2.10
2018-06-29T14:43:10.132Z,1.90
2018-06-29T14:45:40.181Z,2.07
2018-06-29T14:48:09.371Z,2.47
2018-06-29T14:50:38.573Z,2.00
2018-06-29T14:53:08.572Z,1.90
2018-06-29T14:55:38.511Z,2.07
2018-06-29T14:58:07.717Z,1.90
2018-06-29T15:00:37.677Z,2.27
2018-06-29T15:03:06.680Z,2.07
2018-06-29T15:05:38.299Z,1.80
2018-06-29T15:08:07.256Z,2.27
2018-06-29T15:10:36.207Z,2.20
2018-06-29T15:13:05.495Z,2.57
2018-06-29T15:15:34.447Z,2.30
2018-06-29T15:18:03.947Z,2.20
2018-06-29T15:20:32.898Z,1.70
2018-06-29T15:23:01.863Z,2.37
2018-06-29T15:25:32.681Z,2.27
2018-06-29T15:28:01.640Z,2.07
2018-06-29T15:30:30.603Z,2.60
2018-06-29T15:33:00.431Z,2.30
2018-06-29T15:35:29.415Z,2.80
2018-06-29T15:37:58.382Z,2.37
2018-06-29T15:40:27.354Z,2.67
2018-06-29T15:42:57.706Z,2.87
2018-06-29T15:45:28.092Z,2.33
2018-06-29T15:47:59.896Z,3.00
2018-06-29T15:50:28.872Z,2.77
2018-06-29T15:52:57.844Z,3.20
2018-06-29T15:55:26.788Z,2.97
2018-06-29T15:57:56.941Z,3.50
2018-06-29T16:00:25.902Z,3.67
2018-06-29T16:02:54.869Z,4.10
2018-06-29T16:05:23.834Z,5.10
2018-06-29T16:07:56.477Z,3.80
2018-06-29T16:10:25.438Z,4.40
2018-06-29T16:12:54.627Z,5.63
2018-06-29T16:15:23.594Z,3.30
2018-06-29T16:17:52.611Z,3.90
2018-06-29T16:20:22.900Z,4.10
2018-06-29T16:22:51.891Z,3.73
2018-06-29T16:25:21.695Z,3.80
2018-06-29T16:27:51.742Z,3.57
2018-06-29T16:30:21.516Z,4.10
2018-06-29T16:32:50.498Z,5.00
2018-06-29T16:35:19.534Z,4.63
2018-06-29T16:37:48.643Z,4.10
2018-06-29T16:40:17.714Z,3.63
2018-06-29T16:42:46.695Z,6.03
2018-06-29T16:45:15.653Z,4.73
2018-06-29T16:47:45.476Z,5.00
2018-06-29T16:50:19.524Z,4.13
2018-06-29T16:52:48.472Z,4.07
2018-06-29T16:55:17.410Z,3.60
2018-06-29T16:57:46.386Z,4.07
2018-06-29T17:00:16.180Z,5.07
2018-06-29T17:02:45.157Z,4.67
2018-06-29T17:05:14.119Z,4.10
2018-06-29T17:07:43.235Z,4.40
2018-06-29T17:10:12.794Z,3.87
2018-06-29T17:12:41.759Z,3.90
2018-06-29T17:15:10.698Z,3.63
2018-06-29T17:17:41.329Z,3.33
2018-06-29T17:20:13.013Z,4.50
2018-06-29T17:22:44.134Z,3.70
2018-06-29T17:25:13.098Z,4.73
2018-06-29T17:27:42.068Z,3.80
2018-06-29T17:30:12.250Z,4.70
2018-06-29T17:32:41.230Z,4.70
2018-06-29T17:35:10.650Z,4.07
2018-06-29T17:37:39.611Z,3.70
2018-06-29T17:40:12.437Z,4.13
2018-06-29T17:42:41.479Z,4.00
2018-06-29T17:45:10.875Z,4.17
2018-06-29T17:47:40.783Z,5.60
2018-06-29T17:50:10.267Z,5.13
2018-06-29T17:52:39.249Z,6.10
2018-06-29T17:55:08.297Z,4.70
2018-06-29T17:57:37.267Z,5.40
2018-06-29T18:00:06.690Z,4.50
2018-06-29T18:02:36.520Z,4.50
2018-06-29T18:05:05.650Z,4.10
2018-06-29T18:07:34.635Z,4.60
2018-06-29T18:10:05.210Z,4.17
2018-06-29T18:12:35.862Z,4.60
2018-06-29T18:15:04.880Z,3.80
2018-06-29T18:17:33.866Z,3.50
2018-06-29T18:20:03.100Z,3.77
2018-06-29T18:22:32.132Z,4.10
2018-06-29T18:25:01.497Z,3.87
2018-06-29T18:27:30.444Z,4.50
2018-06-29T18:29:59.433Z,3.60
2018-06-29T18:32:28.459Z,3.80
2018-06-29T18:34:57.444Z,3.50
2018-06-29T18:37:26.375Z,4.10
2018-06-29T18:39:55.379Z,4.47
2018-06-29T18:42:27.567Z,4.37
2018-06-29T18:44:56.625Z,4.00
2018-06-29T18:47:25.590Z,3.40
2018-06-29T18:49:56.419Z,3.90
2018-06-29T18:52:26.379Z,3.53
2018-06-29T18:54:55.556Z,4.03
2018-06-29T18:57:24.535Z,3.43
2018-06-29T18:59:54.335Z,4.10
2018-06-29T19:02:23.282Z,3.90
2018-06-29T19:04:56.015Z,3.80
2018-06-29T19:07:25.787Z,4.37
2018-06-29T19:09:54.790Z,4.63
2018-06-29T19:12:26.214Z,4.47
2018-06-29T19:14:55.757Z,4.37
2018-06-29T19:17:24.722Z,4.10
2018-06-29T19:19:54.271Z,4.10
2018-06-29T19:22:23.714Z,3.93
2018-06-29T19:24:56.587Z,4.57
2018-06-29T19:27:25.532Z,4.07
2018-06-29T19:29:55.411Z,4.23
2018-06-29T19:32:24.384Z,4.60
2018-06-29T19:34:53.549Z,4.70
2018-06-29T19:37:22.505Z,4.50
2018-06-29T19:39:51.522Z,4.23
2018-06-29T19:42:20.507Z,4.80
2018-06-29T19:44:53.500Z,4.30
2018-06-29T19:47:23.323Z,4.77
2018-06-29T19:49:52.975Z,5.07
2018-06-29T19:52:21.972Z,4.33
2018-06-29T19:54:51.055Z,4.70
2018-06-29T19:57:20.063Z,4.90
2018-06-29T19:59:52.819Z,4.70
2018-06-29T20:02:27.793Z,4.00
2018-06-29T20:05:02.283Z,4.60
2018-06-29T20:07:37.032Z,4.47
2018-06-29T20:10:06.689Z,4.10
2018-06-29T20:12:35.653Z,4.47
2018-06-29T20:15:05.893Z,4.30
2018-06-29T20:17:34.844Z,4.33
2018-06-29T20:20:04.071Z,4.33
2018-06-29T20:22:33.451Z,4.43
2018-06-29T20:25:02.970Z,5.30
2018-06-29T20:27:31.948Z,5.10
2018-06-29T20:30:03.546Z,4.60
2018-06-29T20:32:35.493Z,5.20
2018-06-29T20:35:04.633Z,5.17
2018-06-29T20:37:38.338Z,4.63
2018-06-29T20:40:09.040Z,4.70
2018-06-29T20:42:38.103Z,5.40
2018-06-29T20:45:07.814Z,4.10
2018-06-29T20:47:36.764Z,4.47
2018-06-29T20:50:05.799Z,3.80
2018-06-29T20:52:34.823Z,4.50
2018-06-29T20:55:03.805Z,4.30
2018-06-29T20:57:32.747Z,4.10
2018-06-29T21:00:02.054Z,4.77
2018-06-29T21:02:31.132Z,4.57
2018-06-29T21:05:00.147Z,4.30
2018-06-29T21:07:29.151Z,3.97
2018-06-29T21:09:58.868Z,4.43
2018-06-29T21:12:28.306Z,3.90
2018-06-29T21:14:58.364Z,4.03
2018-06-29T21:17:27.599Z,4.20
2018-06-29T21:19:57.943Z,4.03
2018-06-29T21:22:27.056Z,4.20
2018-06-29T21:27:55.600Z,4.37
2018-06-29T21:30:24.604Z,4.67
2018-06-29T21:32:56.372Z,4.30
2018-06-29T21:35:25.601Z,4.10
2018-06-29T21:37:56.546Z,4.90
2018-06-29T21:40:26.731Z,4.50
2018-06-29T21:42:57.007Z,3.80
2018-06-29T21:45:26.763Z,4.00
2018-06-29T21:47:55.722Z,4.53
2018-06-29T21:50:25.133Z,4.10
2018-06-29T21:52:54.792Z,4.43
2018-06-29T21:55:23.961Z,3.87
2018-06-29T21:57:53.358Z,4.37
2018-06-29T22:00:23.610Z,5.20
2018-06-29T22:02:53.471Z,4.33
2018-06-29T22:05:22.480Z,4.30
2018-06-29T22:07:51.411Z,4.13
2018-06-29T22:10:22.718Z,4.30
2018-06-29T22:12:52.374Z,4.60
2018-06-29T22:15:24.022Z,4.30
2018-06-29T22:17:53.447Z,3.73
2018-06-29T22:20:23.170Z,4.60
2018-06-29T22:22:52.193Z,4.67
2018-06-29T22:25:22.442Z,4.83
2018-06-29T22:27:51.441Z,4.40
2018-06-29T22:30:24.030Z,4.10
2018-06-29T22:32:56.655Z,4.10
2018-06-29T22:35:26.519Z,3.70
2018-06-29T22:37:55.491Z,3.50
2018-06-29T22:40:25.740Z,4.30
2018-06-29T22:42:54.737Z,3.73
2018-06-29T22:45:25.454Z,3.30
2018-06-29T22:47:55.664Z,3.60
2018-06-29T22:50:25.006Z,3.80
2018-06-29T22:52:54.135Z,3.77
2018-06-29T22:55:24.160Z,3.93
2018-06-29T22:57:53.136Z,3.73
2018-06-29T23:00:22.514Z,3.80
2018-06-29T23:02:57.048Z,3.83
2018-06-29T23:05:26.515Z,4.50
2018-06-29T23:07:56.709Z,4.10
2018-06-29T23:10:25.663Z,3.90
2018-06-29T23:12:55.398Z,4.53
2018-06-29T23:15:27.231Z,3.50
2018-06-29T23:17:57.303Z,3.93
2018-06-29T23:20:27.555Z,3.90
2018-06-29T23:22:57.264Z,3.90
2018-06-29T23:25:28.937Z,4.40
2018-06-29T23:27:57.942Z,3.93
2018-06-29T23:30:26.927Z,4.37
2018-06-29T23:32:56.859Z,3.93
2018-06-29T23:35:27.369Z,4.20
2018-06-29T23:37:58.840Z,3.90
2018-06-29T23:40:27.814Z,3.90
2018-06-29T23:42:57.906Z,4.00
2018-06-29T23:45:26.865Z,4.93
2018-06-29T23:47:56.314Z,4.87
2018-06-29T23:50:25.247Z,4.50
2018-06-29T23:52:58.232Z,4.60
2018-06-29T23:55:27.835Z,4.73
2018-06-29T23:57:56.818Z,5.23
